Language selection

Weather shortcuts

Lake Winnipeg - south basin: Past 24 Hour Conditions

 

Winnipeg Richardson Int'l Airport

11:00 AM CDT 12 July 2024
Disclaimer

This table is a summary of hourly weather conditions for the past 24 hours.
Please note that these observations might not always be representative of weather conditions over their associated marine area.

Date / Time
(CDT)
Wind(knots) Conditions Visibility(km) Pressure(kPa) Air tempC) Relative humidity(%) Dew pointC) Humidex
12 July 2024
11:00 SSE 5 Partly Cloudy 24 101.1 27 66 20 34
10:00 SSW 10 gusts 17 Partly Cloudy 24 101.1 26 68 19 33
9:00 SSW 9 gusts 17 Partly Cloudy 24 101.0 24 75 19 31
8:00 S 12 Mostly Cloudy 19 101.1 21 83 18 27
7:00 SSE 7 Mostly Cloudy 23 101.1 21 88 18 27
6:00 SSW 7 Partly Cloudy 21 101.2 21 87 19 27
5:00 SSW 12 Mostly Cloudy 21 101.1 21 81 18 27
4:00 SSW 13 Partly Cloudy 24 101.1 23 77 19 30
3:00 S 13 Mainly Clear 24 101.0 22 80 18 28
2:00 S 11 gusts 17 Mainly Clear 24 101.0 22 80 19 29
1:00 SSW 11 Partly Cloudy 23 101.1 23 77 19 30
0:00 S 8 Partly Cloudy 23 101.1 23 78 19 30
11 July 2024
23:00 S 6 Partly Cloudy 19 101.1 24 78 19 31
22:00 SSW 8 Partly Cloudy 24 101.1 26 69 20 33
21:00 SSW 11 gusts 16 Mainly Sunny 24 101.1 27 65 20 34
20:00 S 15 gusts 20 Mainly Sunny 24 101.0 29 58 19 36
19:00 SSW 15 gusts 23 Mainly Sunny 24 101.1 29 56 20 37
18:00 S 17 gusts 27 Mainly Sunny 24 101.1 30 53 20 37
17:00 SSW 21 gusts 28 Mainly Sunny 24 101.1 31 47 18 37
16:00 SSW 19 gusts 27 Mainly Sunny 24 101.1 31 49 19 38
15:00 SSW 22 gusts 30 Sunny 24 101.2 31 48 19 37
14:00 SSW 18 gusts 26 Sunny 24 101.2 30 51 19 37
13:00 S 18 gusts 24 Sunny 24 101.3 29 58 20 37
12:00 SSW 15 gusts 22 Sunny 24 101.3 28 59 19 35
11:00 S 13 gusts 22 Sunny 24 101.3 27 60 19 34

Zoom-in to make a selection

Map of Prairies - Manitoba Lakes marine weather areas Lake Winnipeg South Basin - 45140 Lake Winnipeg North - 45144 Lake Winnipeg Narrows - 45145 Lake Of the Woods - 45148 Carberry Portage Southport Airport Wasagaming Sprague Winnipeg Richardson Int'l Airport Berens River Airport George Island Fisher Branch Gimli Harbour Gimli Grand Rapids Victoria Beach Dauphin Airport McCreary Oak Point Marine Swan River Norway House Airport Kenora Airport Royal Island
Legend:
buoy Buoy
land station Land Station

Prairies - Manitoba Lakes Area

Another Region

Features

New Predicting and Alerting Coastal Flooding Program

Find out about coastal flooding coverage, forecasts and warnings in your region

Date modified: